Time;durP1;ratioP1;P1;durP2;ratioP2;P2;SDS_P1;SDS_P2;PMS_P1;PMS_P2;Temp;Humidity;BMP_temperature;BMP_pressure;BME280_temperature;BME280_humidity;BME280_pressure;Samples;Min_cycle;Max_cycle;Signal;HPM_P1;HPM_P2
2023/06/23 00:00:36;;;;;;;18.48;8.85;;;;;;;24.92;60.58;101258.25;5041445;28;20377;-74
2023/06/23 00:03:02;;;;;;;17.40;8.63;;;;;;;24.87;60.71;101265.50;5048151;28;20457;-75
2023/06/23 00:05:28;;;;;;;13.57;8.67;;;;;;;24.85;60.70;101262.19;5049483;28;20372;-74
2023/06/23 00:07:53;;;;;;;13.93;8.45;;;;;;;24.83;60.51;101265.19;5048371;28;20391;-74
2023/06/23 00:10:19;;;;;;;19.13;8.80;;;;;;;24.79;60.43;101272.16;5049410;28;20393;-75
2023/06/23 00:12:45;;;;;;;16.42;8.52;;;;;;;24.68;60.79;101260.38;5049376;28;20419;-74
2023/06/23 00:15:14;;;;;;;16.67;8.90;;;;;;;24.48;61.29;101265.50;5048663;28;20414;-75
2023/06/23 00:17:44;;;;;;;16.40;8.93;;;;;;;24.26;61.93;101260.84;5047663;28;20462;-74
2023/06/23 00:20:12;;;;;;;16.90;9.07;;;;;;;24.17;62.32;101260.44;5049323;28;20739;-75
2023/06/23 00:22:38;;;;;;;20.23;9.27;;;;;;;24.08;62.78;101266.53;5048453;28;20396;-75
2023/06/23 00:25:04;;;;;;;16.93;9.70;;;;;;;23.90;63.44;101262.19;5048387;28;20384;-75
2023/06/23 00:27:29;;;;;;;18.08;9.70;;;;;;;23.76;64.11;101273.28;5049173;28;20373;-74
2023/06/23 00:29:55;;;;;;;18.20;9.55;;;;;;;23.64;64.65;101273.38;5050310;28;20466;-74
2023/06/23 00:32:20;;;;;;;16.90;9.43;;;;;;;23.75;64.41;101277.06;5048213;28;20776;-74
2023/06/23 00:34:46;;;;;;;17.70;10.00;;;;;;;23.62;65.01;101274.66;5047690;28;20388;-75
2023/06/23 00:37:11;;;;;;;21.63;9.97;;;;;;;23.59;64.84;101269.75;5048855;28;20799;-74
2023/06/23 00:39:37;;;;;;;20.90;10.18;;;;;;;23.56;65.02;101262.09;5048341;28;20376;-75
2023/06/23 00:42:03;;;;;;;18.20;10.00;;;;;;;23.59;64.96;101262.44;5048656;28;20845;-76
2023/06/23 00:44:29;;;;;;;18.87;10.13;;;;;;;23.65;64.58;101266.06;5049341;28;20706;-76
2023/06/23 00:46:55;;;;;;;18.00;10.93;;;;;;;23.63;64.49;101262.78;5047823;28;20860;-76
2023/06/23 00:49:20;;;;;;;19.27;10.37;;;;;;;23.60;64.71;101274.06;5047272;28;20385;-76
2023/06/23 00:51:46;;;;;;;19.88;10.25;;;;;;;23.50;64.60;101269.31;5047697;28;20845;-76
2023/06/23 00:54:12;;;;;;;16.87;9.97;;;;;;;23.40;64.86;101271.81;5046581;28;20404;-76
2023/06/23 00:56:38;;;;;;;17.52;10.25;;;;;;;23.42;64.48;101275.09;5046564;28;20752;-76
2023/06/23 00:59:05;;;;;;;21.25;9.98;;;;;;;23.29;64.79;101273.50;5047679;28;21025;-75
2023/06/23 01:01:31;;;;;;;17.13;9.27;;;;;;;23.23;65.12;101269.09;5047104;28;20389;-74
2023/06/23 01:04:00;;;;;;;17.73;9.60;;;;;;;23.16;65.25;101260.28;5047411;28;20388;-74
2023/06/23 01:06:56;;;;;;;17.30;9.40;;;;;;;23.06;65.26;101267.09;5047470;28;20566;-75
2023/06/23 01:09:22;;;;;;;16.95;9.57;;;;;;;23.03;65.17;101262.16;5047375;28;20454;-75
2023/06/23 01:11:57;;;;;;;17.73;9.67;;;;;;;23.00;65.25;101265.34;5049017;28;20385;-75
2023/06/23 01:14:45;;;;;;;19.50;9.87;;;;;;;22.95;65.41;101248.22;5048921;28;20396;-75
2023/06/23 01:17:23;;;;;;;18.35;9.38;;;;;;;23.02;65.28;101248.88;5047577;28;20416;-75
2023/06/23 01:20:21;;;;;;;15.27;9.30;;;;;;;23.05;65.14;101251.16;5047330;28;20412;-74
2023/06/23 01:23:33;;;;;;;19.03;9.73;;;;;;;23.08;64.98;101243.38;5046850;28;20854;-75
2023/06/23 01:26:15;;;;;;;17.95;9.55;;;;;;;23.06;64.75;101234.66;5027447;28;20439;-75
2023/06/23 01:28:50;;;;;;;19.60;9.80;;;;;;;23.07;65.13;101239.03;5046907;28;20853;-75
2023/06/23 01:31:33;;;;;;;17.63;9.23;;;;;;;23.07;65.11;101238.22;5046507;28;20405;-75
2023/06/23 01:34:03;;;;;;;17.50;9.98;;;;;;;23.11;64.52;101235.84;5046945;28;20405;-75
2023/06/23 01:36:35;;;;;;;14.23;8.82;;;;;;;23.20;64.15;101231.69;5046875;28;20399;-75
2023/06/23 01:39:03;;;;;;;20.67;9.65;;;;;;;23.26;63.76;101236.13;5047226;28;20381;-75
2023/06/23 01:41:33;;;;;;;18.33;8.98;;;;;;;23.23;64.06;101221.22;5047260;28;20655;-75
2023/06/23 01:44:04;;;;;;;20.25;9.60;;;;;;;23.12;63.94;101224.78;5047733;28;20414;-75
2023/06/23 01:46:35;;;;;;;20.45;9.57;;;;;;;23.15;64.20;101232.41;5047728;28;20395;-75
2023/06/23 01:49:10;;;;;;;18.15;9.48;;;;;;;23.18;63.84;101239.22;5047153;28;21042;-75
2023/06/23 01:51:40;;;;;;;19.27;9.45;;;;;;;23.12;63.99;101226.66;5046755;28;20377;-75
2023/06/23 01:54:07;;;;;;;18.02;9.60;;;;;;;23.04;64.27;101235.94;5046518;28;20412;-75
2023/06/23 01:56:35;;;;;;;16.67;9.65;;;;;;;23.02;64.52;101224.56;5053637;28;20771;-75
2023/06/23 01:59:02;;;;;;;16.50;9.80;;;;;;;23.01;64.31;101231.84;5066716;28;20382;-74
2023/06/23 02:01:31;;;;;;;17.70;10.00;;;;;;;22.89;65.24;101234.56;5066222;28;20814;-75
2023/06/23 02:03:59;;;;;;;16.95;9.77;;;;;;;22.88;64.88;101222.09;5066115;28;20379;-74
2023/06/23 02:06:27;;;;;;;19.90;10.38;;;;;;;22.97;64.75;101229.84;5065228;28;20383;-75
2023/06/23 02:08:53;;;;;;;17.00;9.90;;;;;;;22.95;64.79;101230.09;5066702;28;20371;-74
2023/06/23 02:11:19;;;;;;;16.45;9.73;;;;;;;22.92;64.81;101244.06;5066504;28;20410;-74
2023/06/23 02:13:46;;;;;;;19.40;10.27;;;;;;;22.88;65.19;101241.03;5065975;28;20407;-74
2023/06/23 02:16:13;;;;;;;19.52;9.77;;;;;;;22.88;65.22;101240.22;5066439;28;20389;-74
2023/06/23 02:18:40;;;;;;;19.05;10.65;;;;;;;22.87;65.04;101241.31;5065344;28;20486;-75
2023/06/23 02:21:07;;;;;;;21.83;10.30;;;;;;;22.85;65.03;101233.44;5054461;28;20390;-75
2023/06/23 02:23:34;;;;;;;17.33;10.20;;;;;;;22.88;64.93;101240.22;5027489;28;20401;-75
2023/06/23 02:26:01;;;;;;;18.93;10.23;;;;;;;22.88;64.89;101234.81;5042353;28;20384;-74
2023/06/23 02:28:27;;;;;;;19.27;10.20;;;;;;;22.80;65.36;101237.91;5045653;28;20815;-74
2023/06/23 02:30:55;;;;;;;18.48;10.18;;;;;;;22.51;66.17;101230.53;5043868;28;20400;-74
2023/06/23 02:33:21;;;;;;;22.97;10.43;;;;;;;22.51;66.15;101241.34;5047323;28;20480;-75
2023/06/23 02:35:49;;;;;;;16.50;9.88;;;;;;;22.62;65.81;101252.41;5048990;28;20398;-76
2023/06/23 02:38:21;;;;;;;18.40;9.93;;;;;;;22.69;65.43;101251.19;5044129;28;20395;-76
2023/06/23 02:40:47;;;;;;;21.80;10.00;;;;;;;22.73;64.98;101245.31;5046425;28;20405;-76
2023/06/23 02:43:27;;;;;;;20.38;9.70;;;;;;;22.57;65.46;101241.47;5040590;28;20814;-77
2023/06/23 02:45:55;;;;;;;15.45;9.77;;;;;;;22.41;65.92;101243.81;5058275;28;20391;-75
2023/06/23 02:48:26;;;;;;;21.70;10.80;;;;;;;22.40;66.00;101246.75;5063243;28;20397;-75
2023/06/23 02:50:57;;;;;;;19.27;9.43;;;;;;;22.39;66.30;101261.34;5063525;28;20382;-75
2023/06/23 02:53:27;;;;;;;19.25;9.70;;;;;;;22.43;65.71;101254.41;5063322;28;20402;-74
2023/06/23 02:56:01;;;;;;;17.00;10.00;;;;;;;22.40;65.91;101249.47;5064539;28;20437;-75
2023/06/23 02:58:30;;;;;;;22.85;10.35;;;;;;;22.42;65.39;101247.34;5054274;28;21430;-74
2023/06/23 03:00:58;;;;;;;19.57;10.50;;;;;;;22.41;65.60;101246.53;5047002;28;20419;-74
2023/06/23 03:03:25;;;;;;;18.73;9.60;;;;;;;22.38;65.56;101246.19;5046841;28;20912;-75
2023/06/23 03:05:51;;;;;;;18.58;9.90;;;;;;;22.28;66.11;101244.88;5046335;28;20433;-74
2023/06/23 03:08:16;;;;;;;19.43;10.30;;;;;;;22.29;65.98;101246.53;5046361;28;20781;-74
2023/06/23 03:10:42;;;;;;;22.87;10.73;;;;;;;22.33;65.80;101249.59;5046981;28;20381;-74
2023/06/23 03:13:08;;;;;;;16.60;9.63;;;;;;;22.43;65.58;101257.09;5046827;28;20501;-74
2023/06/23 03:15:36;;;;;;;21.98;9.77;;;;;;;22.49;65.53;101254.28;5047078;28;20381;-77
2023/06/23 03:18:08;;;;;;;24.70;10.55;;;;;;;22.45;65.24;101263.09;5046939;28;20715;-75
2023/06/23 03:20:43;;;;;;;23.73;10.60;;;;;;;22.33;65.50;101266.63;5046305;28;21126;-75
2023/06/23 03:23:14;;;;;;;19.63;10.02;;;;;;;22.21;65.74;101262.25;5046708;28;20385;-74
2023/06/23 03:25:41;;;;;;;23.23;10.63;;;;;;;22.18;66.14;101268.09;5046369;28;20419;-75
2023/06/23 03:28:12;;;;;;;22.25;10.23;;;;;;;22.20;66.10;101274.09;5046500;28;20445;-75
2023/06/23 03:30:47;;;;;;;22.67;10.38;;;;;;;22.08;66.48;101277.59;5048335;28;20384;-75
2023/06/23 03:33:27;;;;;;;20.35;10.13;;;;;;;22.04;66.51;101295.34;5050697;28;20510;-75
2023/06/23 03:35:57;;;;;;;24.60;11.20;;;;;;;22.03;66.82;101292.88;5050358;28;20388;-74
2023/06/23 03:38:25;;;;;;;23.05;10.55;;;;;;;22.13;66.44;101293.94;5050130;28;20381;-73
2023/06/23 03:40:58;;;;;;;27.38;11.60;;;;;;;22.23;66.62;101290.66;5049839;28;20442;-74
2023/06/23 03:43:31;;;;;;;29.10;12.75;;;;;;;22.20;66.77;101293.00;5050419;28;20427;-74
2023/06/23 03:46:01;;;;;;;27.27;12.32;;;;;;;22.27;66.87;101308.06;5050637;28;20419;-74
2023/06/23 03:48:30;;;;;;;27.50;13.98;;;;;;;22.36;66.99;101311.22;5050389;28;20391;-74
2023/06/23 03:50:58;;;;;;;26.17;12.60;;;;;;;22.38;67.31;101302.91;5050467;28;20383;-75
2023/06/23 03:53:26;;;;;;;25.77;12.40;;;;;;;22.42;67.55;101299.50;5050710;28;20401;-75
2023/06/23 03:55:55;;;;;;;25.58;12.23;;;;;;;22.75;66.98;101310.78;5050119;28;20416;-75
2023/06/23 03:58:22;;;;;;;25.80;12.90;;;;;;;22.88;66.76;101305.09;5050263;28;20463;-75
2023/06/23 04:00:51;;;;;;;25.58;13.18;;;;;;;22.81;66.87;101304.41;5049962;28;20401;-75
2023/06/23 04:03:19;;;;;;;30.40;13.82;;;;;;;22.78;67.18;101312.97;5049945;28;20373;-75
2023/06/23 04:05:48;;;;;;;27.60;13.80;;;;;;;22.80;67.12;101316.28;5049228;28;20412;-76
2023/06/23 04:08:17;;;;;;;22.80;13.82;;;;;;;22.79;67.35;101304.63;5050096;28;20416;-76
2023/06/23 04:10:44;;;;;;;27.50;13.60;;;;;;;23.05;66.74;101313.34;5049215;28;20455;-75
2023/06/23 04:13:12;;;;;;;28.13;13.23;;;;;;;23.26;66.26;101306.44;5050046;28;20424;-76
2023/06/23 04:15:40;;;;;;;26.38;13.45;;;;;;;23.35;65.89;101315.00;5050613;28;20454;-75
2023/06/23 04:18:08;;;;;;;24.15;14.35;;;;;;;23.34;65.94;101322.31;5050346;28;20416;-73
2023/06/23 04:20:35;;;;;;;30.73;16.45;;;;;;;23.52;65.66;101325.91;5049965;28;20533;-74
2023/06/23 04:23:03;;;;;;;29.80;17.07;;;;;;;23.51;65.28;101313.44;5048562;28;20774;-74
2023/06/23 04:25:29;;;;;;;31.33;17.13;;;;;;;23.62;65.02;101317.97;5050109;28;20415;-77
2023/06/23 04:27:59;;;;;;;28.25;15.57;;;;;;;23.80;64.81;101311.53;5051044;28;20497;-74
2023/06/23 04:30:27;;;;;;;28.60;16.92;;;;;;;23.98;64.33;101316.72;5048422;28;20380;-75
2023/06/23 04:32:52;;;;;;;25.60;15.50;;;;;;;23.96;64.14;101313.44;5049738;28;20877;-75
2023/06/23 04:35:18;;;;;;;25.63;14.70;;;;;;;24.16;63.88;101304.03;5049761;28;20484;-75
2023/06/23 04:37:52;;;;;;;22.00;14.88;;;;;;;24.27;63.66;101302.28;5050160;28;20464;-75
2023/06/23 04:40:33;;;;;;;23.38;14.18;;;;;;;24.40;63.39;101301.97;5049037;28;20431;-75
2023/06/23 04:43:13;;;;;;;24.75;14.45;;;;;;;24.61;62.90;101297.69;5049653;28;20398;-75
2023/06/23 04:45:46;;;;;;;32.80;13.18;;;;;;;24.61;62.92;101293.09;5049624;28;20385;-75
2023/06/23 04:48:13;;;;;;;29.23;14.15;;;;;;;24.65;63.07;101292.56;5050133;28;20419;-75
2023/06/23 04:50:41;;;;;;;33.03;14.40;;;;;;;24.73;62.79;101289.44;5051504;28;20399;-74
2023/06/23 04:53:16;;;;;;;25.50;13.85;;;;;;;24.92;62.63;101288.06;5052368;28;20484;-76
2023/06/23 04:55:44;;;;;;;27.15;13.10;;;;;;;24.93;62.28;101292.41;5050047;28;20387;-76
2023/06/23 04:58:12;;;;;;;30.20;14.07;;;;;;;24.90;62.54;101295.66;5053563;28;20733;-74
2023/06/23 05:00:40;;;;;;;29.15;13.38;;;;;;;24.95;62.41;101298.41;5052303;28;20392;-74
2023/06/23 05:03:07;;;;;;;30.88;14.00;;;;;;;24.99;62.49;101293.28;5051767;28;20853;-75
2023/06/23 05:05:35;;;;;;;28.35;13.93;;;;;;;25.28;61.86;101290.41;5052134;28;20387;-74
2023/06/23 05:08:04;;;;;;;34.55;14.55;;;;;;;25.42;61.79;101307.13;5050887;28;20820;-75
2023/06/23 05:10:30;;;;;;;26.63;13.70;;;;;;;25.43;61.55;101306.88;5050677;28;20408;-75
2023/06/23 05:12:58;;;;;;;24.33;14.00;;;;;;;25.55;61.37;101312.13;5050619;28;20470;-75
2023/06/23 05:15:25;;;;;;;32.42;15.13;;;;;;;25.55;61.22;101315.69;5049962;28;20416;-75
2023/06/23 05:17:55;;;;;;;23.27;13.45;;;;;;;25.40;61.66;101311.97;5050941;28;20412;-74
2023/06/23 05:20:23;;;;;;;23.33;13.82;;;;;;;25.40;61.66;101309.28;5051125;28;20875;-75
2023/06/23 05:22:51;;;;;;;25.15;14.25;;;;;;;25.53;61.31;101312.41;5050463;28;20372;-74
2023/06/23 05:25:19;;;;;;;18.33;13.18;;;;;;;25.47;61.53;101313.41;5051066;28;20613;-74
2023/06/23 05:27:45;;;;;;;22.60;14.25;;;;;;;25.56;61.37;101320.03;5051290;28;20416;-73
2023/06/23 05:30:17;;;;;;;23.88;13.57;;;;;;;25.80;60.88;101310.75;5051042;28;20377;-75
2023/06/23 05:32:46;;;;;;;24.70;14.85;;;;;;;25.97;60.72;101310.69;5050582;28;20412;-75
2023/06/23 05:35:13;;;;;;;24.05;14.30;;;;;;;26.24;59.83;101314.13;5050247;28;20392;-75
2023/06/23 05:37:40;;;;;;;26.02;14.70;;;;;;;26.26;59.63;101309.25;5051497;28;20373;-75
2023/06/23 05:40:11;;;;;;;24.27;13.80;;;;;;;26.43;59.86;101319.97;5050794;28;20926;-75
2023/06/23 05:42:37;;;;;;;24.02;14.75;;;;;;;26.80;58.79;101316.41;5050868;28;20834;-75
2023/06/23 05:45:03;;;;;;;23.00;14.48;;;;;;;26.91;58.09;101325.44;5050391;28;20438;-75
2023/06/23 05:47:40;;;;;;;25.98;14.32;;;;;;;26.98;58.10;101319.78;5049035;28;20409;-75
2023/06/23 05:50:18;;;;;;;24.13;15.07;;;;;;;27.15;58.05;101309.47;5047210;28;20373;-75
2023/06/23 05:52:53;;;;;;;23.80;14.73;;;;;;;27.54;56.67;101309.09;5045565;28;20892;-74
2023/06/23 05:55:20;;;;;;;26.00;15.68;;;;;;;27.80;56.02;101299.06;5048969;28;20395;-76
2023/06/23 05:57:49;;;;;;;23.05;14.00;;;;;;;27.94;55.19;101301.25;5048862;28;20440;-75
2023/06/23 06:00:18;;;;;;;23.85;14.70;;;;;;;28.10;55.11;101310.25;5050297;28;20381;-76
2023/06/23 06:02:49;;;;;;;24.73;14.20;;;;;;;28.09;55.22;101305.88;5050358;28;20415;-76
2023/06/23 06:05:17;;;;;;;29.80;14.95;;;;;;;28.22;55.00;101308.06;5049584;28;20373;-77
2023/06/23 06:07:45;;;;;;;17.63;12.93;;;;;;;28.35;54.64;101301.22;5050272;28;20467;-75
2023/06/23 06:10:14;;;;;;;19.48;14.30;;;;;;;28.56;53.99;101300.13;5048639;28;20415;-74
2023/06/23 06:12:44;;;;;;;21.23;13.48;;;;;;;28.69;53.49;101306.91;5048447;28;20404;-74
2023/06/23 06:15:10;;;;;;;22.75;14.02;;;;;;;28.76;53.12;101292.97;5047543;28;20975;-75
2023/06/23 06:17:39;;;;;;;20.83;14.70;;;;;;;29.06;52.09;101294.72;5045140;28;21087;-75
2023/06/23 06:20:06;;;;;;;23.70;15.70;;;;;;;29.06;51.92;101299.38;5048639;28;20381;-75
2023/06/23 06:22:36;;;;;;;20.75;14.63;;;;;;;29.15;51.69;101290.38;5029013;28;20919;-75
2023/06/23 06:25:03;;;;;;;21.80;15.80;;;;;;;29.15;51.45;101295.84;5028699;28;20692;-75
2023/06/23 06:27:32;;;;;;;23.30;15.07;;;;;;;29.08;51.61;101289.00;5027879;28;20393;-75
2023/06/23 06:29:59;;;;;;;17.65;14.90;;;;;;;29.12;51.73;101293.63;5028161;28;20464;-76
2023/06/23 06:32:29;;;;;;;20.23;15.85;;;;;;;29.30;51.34;101294.91;5026422;28;20436;-75
2023/06/23 06:34:56;;;;;;;19.33;14.80;;;;;;;29.41;51.03;101283.94;5027614;28;20394;-76
2023/06/23 06:37:25;;;;;;;24.58;15.50;;;;;;;29.42;51.06;101277.38;5031019;28;20935;-76
2023/06/23 06:39:51;;;;;;;22.42;16.05;;;;;;;29.52;51.16;101289.03;5045285;28;20400;-75
2023/06/23 06:42:18;;;;;;;27.47;15.67;;;;;;;29.52;51.44;101282.75;5048467;28;20414;-76
2023/06/23 06:44:43;;;;;;;21.42;15.80;;;;;;;29.77;50.84;101281.78;5048091;28;20388;-76
2023/06/23 06:47:11;;;;;;;24.20;16.35;;;;;;;29.91;50.47;101279.22;5045494;28;20404;-75
2023/06/23 06:49:39;;;;;;;25.33;15.63;;;;;;;29.94;50.72;101284.09;5045827;28;20849;-77
2023/06/23 06:52:06;;;;;;;21.95;16.33;;;;;;;29.99;50.37;101273.13;5047437;28;20485;-75
2023/06/23 06:54:33;;;;;;;23.37;15.53;;;;;;;29.90;50.72;101264.72;5047341;28;20837;-77
2023/06/23 06:56:58;;;;;;;21.92;15.43;;;;;;;30.10;50.20;101268.38;5047860;28;20387;-75
2023/06/23 06:59:24;;;;;;;18.60;15.00;;;;;;;30.23;49.76;101264.97;5048414;28;20380;-75
2023/06/23 07:01:50;;;;;;;22.83;14.77;;;;;;;30.38;49.16;101261.28;5049144;28;20769;-75
2023/06/23 07:04:16;;;;;;;21.80;15.00;;;;;;;30.43;48.90;101254.91;5048298;28;20432;-75
2023/06/23 07:06:41;;;;;;;19.60;14.73;;;;;;;29.92;49.78;101259.78;5048909;28;20475;-77
2023/06/23 07:09:07;;;;;;;19.45;14.90;;;;;;;30.19;49.89;101249.41;5050223;28;20517;-75
2023/06/23 07:11:33;;;;;;;18.17;14.30;;;;;;;30.52;49.17;101244.97;5048791;28;20460;-76
2023/06/23 07:14:00;;;;;;;23.83;14.77;;;;;;;30.66;48.68;101248.63;5048659;28;20467;-75
2023/06/23 07:16:30;;;;;;;20.02;14.80;;;;;;;30.71;48.46;101244.22;5049419;28;20381;-76
2023/06/23 07:18:56;;;;;;;18.05;14.40;;;;;;;30.80;48.19;101243.25;5048554;28;20877;-77
2023/06/23 07:21:22;;;;;;;19.98;14.60;;;;;;;30.80;48.24;101248.72;5049077;28;20380;-76
2023/06/23 07:23:47;;;;;;;16.97;14.77;;;;;;;30.79;48.17;101235.34;5054990;28;20917;-75
2023/06/23 07:26:13;;;;;;;21.73;14.53;;;;;;;30.82;48.12;101238.28;5049745;28;20473;-76
2023/06/23 07:28:38;;;;;;;16.80;13.53;;;;;;;30.85;48.21;101248.66;5048545;28;20792;-76
2023/06/23 07:31:04;;;;;;;18.37;14.77;;;;;;;30.97;47.93;101247.44;5049002;28;20461;-76
2023/06/23 07:33:30;;;;;;;20.25;15.05;;;;;;;31.06;47.52;101249.25;5047595;28;20412;-75
2023/06/23 07:35:55;;;;;;;20.17;14.70;;;;;;;31.12;47.24;101243.69;5047706;28;20377;-76
2023/06/23 07:38:21;;;;;;;19.47;14.67;;;;;;;31.22;47.00;101249.84;5047675;28;20376;-77
2023/06/23 07:40:46;;;;;;;17.57;13.77;;;;;;;31.28;47.40;101252.47;5047383;28;20464;-76
2023/06/23 07:43:13;;;;;;;16.57;14.60;;;;;;;31.36;46.84;101246.34;5048905;28;20381;-76
2023/06/23 07:45:39;;;;;;;18.98;13.98;;;;;;;31.57;46.30;101242.19;5048942;28;20388;-75
2023/06/23 07:48:04;;;;;;;22.45;14.52;;;;;;;31.66;46.33;101220.41;5049114;28;20526;-76
2023/06/23 07:50:30;;;;;;;22.00;14.23;;;;;;;31.69;46.21;101227.19;5048255;28;20542;-76
2023/06/23 07:52:55;;;;;;;22.60;15.47;;;;;;;31.70;46.11;101237.88;5047270;28;20912;-78
2023/06/23 07:55:21;;;;;;;18.50;14.07;;;;;;;31.75;46.05;101231.50;5048727;28;20398;-77
2023/06/23 07:57:48;;;;;;;19.75;14.40;;;;;;;31.88;45.98;101227.16;5047977;28;20837;-76
2023/06/23 08:00:15;;;;;;;19.42;14.88;;;;;;;31.97;45.53;101228.88;5048701;28;20797;-75
2023/06/23 08:02:41;;;;;;;17.92;13.85;;;;;;;32.05;45.57;101230.13;5046694;28;20380;-75
2023/06/23 08:05:08;;;;;;;16.23;13.77;;;;;;;32.03;45.35;101231.53;5046329;28;20475;-76
2023/06/23 08:07:33;;;;;;;18.27;13.70;;;;;;;32.15;45.20;101232.69;5046572;28;20393;-76
2023/06/23 08:09:58;;;;;;;17.17;13.67;;;;;;;32.18;44.93;101231.28;5047070;28;20380;-76
2023/06/23 08:12:24;;;;;;;15.70;13.53;;;;;;;32.23;45.17;101224.88;5046727;28;20381;-77
2023/06/23 08:14:49;;;;;;;18.45;13.68;;;;;;;32.25;44.76;101228.97;5045915;28;20402;-76
2023/06/23 08:17:15;;;;;;;19.23;13.65;;;;;;;32.29;44.94;101229.16;5049119;28;20401;-75
2023/06/23 08:19:41;;;;;;;19.95;13.13;;;;;;;32.25;45.07;101225.38;5051178;28;20407;-79
2023/06/23 08:22:07;;;;;;;14.48;12.95;;;;;;;32.35;44.96;101227.94;5053655;28;20411;-76
2023/06/23 08:24:32;;;;;;;17.45;12.25;;;;;;;32.38;45.31;101217.16;5051933;28;20841;-74
2023/06/23 08:26:58;;;;;;;16.92;12.98;;;;;;;32.39;45.12;101210.56;5051298;28;20522;-76
2023/06/23 08:29:23;;;;;;;15.15;12.52;;;;;;;32.30;44.86;101206.09;5050784;28;20377;-76
2023/06/23 08:31:49;;;;;;;15.23;12.20;;;;;;;32.38;44.48;101202.63;5048985;28;20413;-76
2023/06/23 08:34:14;;;;;;;17.37;12.10;;;;;;;32.54;44.55;101211.38;5050737;28;20400;-76
2023/06/23 08:36:39;;;;;;;24.07;12.43;;;;;;;32.50;44.47;101211.16;5049603;28;20938;-76
2023/06/23 08:39:05;;;;;;;19.50;12.13;;;;;;;32.61;44.01;101206.31;5051816;28;20392;-75
2023/06/23 08:41:32;;;;;;;22.20;12.10;;;;;;;32.62;43.93;101201.63;5051159;28;20408;-78
2023/06/23 08:44:01;;;;;;;16.20;11.02;;;;;;;32.75;43.15;101200.78;5049866;28;20384;-76
2023/06/23 08:46:30;;;;;;;14.40;9.82;;;;;;;32.85;42.78;101200.56;5050793;28;20377;-76
2023/06/23 08:49:01;;;;;;;12.13;8.47;;;;;;;32.88;41.49;101199.09;5055092;28;20439;-76
2023/06/23 08:51:27;;;;;;;12.25;8.48;;;;;;;33.07;41.80;101201.72;5050090;28;20455;-75
2023/06/23 08:53:52;;;;;;;11.23;7.65;;;;;;;33.03;40.48;101193.28;5051156;28;20512;-76
2023/06/23 08:56:19;;;;;;;12.50;8.13;;;;;;;33.07;40.46;101193.47;5052054;28;20396;-75
2023/06/23 08:58:44;;;;;;;9.15;7.22;;;;;;;33.17;39.87;101197.94;5050147;28;20389;-76
2023/06/23 09:01:10;;;;;;;10.30;6.70;;;;;;;33.31;38.29;101191.28;5049860;28;20796;-76
2023/06/23 09:03:36;;;;;;;12.80;6.38;;;;;;;33.25;37.39;101191.69;5050496;28;20431;-76
2023/06/23 09:06:03;;;;;;;12.38;7.28;;;;;;;33.15;37.40;101187.25;5042988;28;20788;-76
2023/06/23 09:08:28;;;;;;;12.05;7.47;;;;;;;33.13;37.60;101184.84;5039146;28;20417;-75
2023/06/23 09:10:54;;;;;;;10.13;7.82;;;;;;;33.31;37.73;101184.94;5045607;28;20399;-76
2023/06/23 09:13:27;;;;;;;11.57;9.00;;;;;;;33.45;38.35;101176.63;5049292;28;20466;-76
2023/06/23 09:15:53;;;;;;;14.73;9.20;;;;;;;33.50;38.71;101188.31;5045449;28;20430;-77
2023/06/23 09:18:19;;;;;;;9.07;5.95;;;;;;;33.53;37.59;101184.94;5044806;28;20775;-76
2023/06/23 09:20:48;;;;;;;10.98;6.45;;;;;;;33.69;36.36;101182.63;5047533;28;20921;-75
2023/06/23 09:23:21;;;;;;;8.75;7.03;;;;;;;33.74;36.28;101178.13;5044969;28;20417;-76
2023/06/23 09:25:50;;;;;;;12.50;7.55;;;;;;;33.71;36.88;101182.31;5046049;28;20388;-74
2023/06/23 09:28:30;;;;;;;13.13;10.00;;;;;;;33.69;38.10;101177.13;5050134;28;20373;-77
2023/06/23 09:30:58;;;;;;;12.95;9.50;;;;;;;33.80;38.30;101176.84;5027894;28;20394;-76
2023/06/23 09:33:25;;;;;;;17.40;10.82;;;;;;;34.00;38.70;101181.00;5027716;28;20872;-75
2023/06/23 09:35:52;;;;;;;15.88;10.55;;;;;;;34.01;38.63;101174.34;5026742;28;20378;-78
2023/06/23 09:38:26;;;;;;;17.05;10.18;;;;;;;34.16;38.91;101171.19;5026977;28;20421;-77
2023/06/23 09:41:02;;;;;;;15.30;10.30;;;;;;;34.13;38.86;101176.50;5026542;28;20382;-75
2023/06/23 09:43:28;;;;;;;15.90;10.93;;;;;;;34.19;38.24;101176.06;5025984;28;20396;-76
2023/06/23 09:45:53;;;;;;;13.37;9.90;;;;;;;34.19;38.54;101164.25;5028332;28;20735;-76
2023/06/23 09:48:19;;;;;;;18.97;10.83;;;;;;;34.13;38.76;101168.25;5029109;28;20914;-78
2023/06/23 09:50:44;;;;;;;15.05;11.65;;;;;;;34.16;38.84;101162.09;5026797;28;20851;-75
2023/06/23 09:53:12;;;;;;;14.13;10.82;;;;;;;34.33;38.97;101164.94;5028216;28;20553;-76
2023/06/23 09:55:38;;;;;;;12.67;10.43;;;;;;;34.45;38.80;101156.88;5028099;28;20401;-78
2023/06/23 09:58:08;;;;;;;16.27;10.10;;;;;;;34.51;38.49;101149.25;5010465;28;20485;-76
2023/06/23 10:00:34;;;;;;;13.00;10.60;;;;;;;34.43;38.50;101150.88;5027320;28;20522;-77
2023/06/23 10:02:59;;;;;;;16.73;10.57;;;;;;;34.45;38.31;101148.59;5045137;28;20430;-76
2023/06/23 10:05:33;;;;;;;13.30;10.67;;;;;;;34.50;38.28;101149.56;5051183;28;20421;-78
2023/06/23 10:08:07;;;;;;;13.40;10.80;;;;;;;34.58;38.05;101160.59;5050335;28;20792;-77
2023/06/23 10:10:33;;;;;;;12.33;10.40;;;;;;;34.53;37.98;101140.69;5049883;28;20427;-76
2023/06/23 10:12:59;;;;;;;12.60;9.75;;;;;;;34.59;37.76;101142.13;5050813;28;20453;-77
2023/06/23 10:15:25;;;;;;;15.23;10.10;;;;;;;34.64;37.73;101139.22;5049295;28;20388;-76
2023/06/23 10:17:50;;;;;;;13.15;10.02;;;;;;;34.69;37.49;101141.84;5046851;28;20515;-75
2023/06/23 10:20:16;;;;;;;11.73;9.83;;;;;;;34.72;37.39;101149.47;5050413;28;20943;-79
2023/06/23 10:22:44;;;;;;;14.23;10.63;;;;;;;34.71;37.43;101134.06;5047083;28;20495;-76
2023/06/23 10:25:12;;;;;;;13.38;10.38;;;;;;;34.73;37.17;101131.81;5044215;28;20500;-76
2023/06/23 10:27:41;;;;;;;15.50;10.60;;;;;;;34.85;37.57;101134.72;5048195;28;20492;-76
2023/06/23 10:30:10;;;;;;;12.35;10.35;;;;;;;34.84;37.79;101138.63;5040490;28;20392;-78
2023/06/23 10:32:37;;;;;;;13.77;10.43;;;;;;;35.05;37.85;101140.69;5048119;28;20397;-78
2023/06/23 10:35:08;;;;;;;14.38;10.63;;;;;;;35.02;37.34;101131.16;5046184;28;20791;-78
2023/06/23 10:37:35;;;;;;;16.47;11.07;;;;;;;34.94;36.95;101125.66;5047807;28;20487;-76
2023/06/23 10:40:04;;;;;;;11.87;9.83;;;;;;;34.90;37.69;101130.16;5048659;28;20380;-75
2023/06/23 10:42:34;;;;;;;13.77;10.18;;;;;;;35.01;37.34;101137.00;5047351;28;20889;-76
2023/06/23 10:44:59;;;;;;;12.97;10.47;;;;;;;35.09;36.98;101138.09;5047927;28;20389;-76
2023/06/23 10:47:26;;;;;;;14.18;10.57;;;;;;;35.17;36.40;101131.78;5047043;28;20401;-76
2023/06/23 10:49:52;;;;;;;16.20;10.10;;;;;;;35.17;36.83;101129.81;5047089;28;20389;-75
2023/06/23 10:52:18;;;;;;;13.45;10.13;;;;;;;35.09;36.78;101129.84;5048807;28;20455;-75
2023/06/23 10:54:44;;;;;;;12.32;9.85;;;;;;;35.21;36.68;101119.78;5046677;28;20559;-77
2023/06/23 10:57:28;;;;;;;14.60;9.77;;;;;;;35.20;36.59;101120.94;5047538;28;21191;-76
2023/06/23 11:00:05;;;;;;;12.55;9.43;;;;;;;35.31;36.30;101123.34;5044655;28;20393;-74
2023/06/23 11:02:52;;;;;;;13.90;10.15;;;;;;;35.20;36.15;101115.44;5042089;28;21069;-76
2023/06/23 11:05:17;;;;;;;14.53;9.97;;;;;;;34.95;36.21;101106.03;5044559;28;20385;-74
2023/06/23 11:08:02;;;;;;;13.15;9.77;;;;;;;34.97;37.26;101113.97;5040027;28;20958;-77
2023/06/23 11:10:57;;;;;;;15.25;9.90;;;;;;;35.11;36.34;101117.34;5044322;28;20800;-75
2023/06/23 11:13:51;;;;;;;16.15;9.70;;;;;;;35.19;36.08;101102.78;5038883;28;20408;-75
2023/06/23 11:16:25;;;;;;;14.48;9.90;;;;;;;35.26;36.18;101091.25;5047376;28;20456;-76
2023/06/23 11:18:58;;;;;;;14.63;10.30;;;;;;;35.27;35.65;101108.59;5048582;28;20412;-75